Time;durP1;ratioP1;P1;durP2;ratioP2;P2;SDS_P1;SDS_P2;PMS_P1;PMS_P2;Temp;Humidity;BMP_temperature;BMP_pressure;BME280_temperature;BME280_humidity;BME280_pressure;Samples;Min_cycle;Max_cycle;Signal;HPM_P1;HPM_P2
2022/10/21 00:00:24;;;;;;;0.30;0.20;;;;;;;;;;5121622;27;20065;-65
2022/10/21 00:02:51;;;;;;;2.73;0.73;;;;;;;;;;5130774;27;20062;-66
2022/10/21 00:05:17;;;;;;;1.63;0.30;;;;;;;;;;5107060;27;20118;-69
2022/10/21 00:07:44;;;;;;;0.87;0.40;;;;;;;;;;5113260;27;20150;-70
2022/10/21 00:10:11;;;;;;;1.00;0.47;;;;;;;;;;5127875;27;20062;-67
2022/10/21 00:12:38;;;;;;;1.03;0.37;;;;;;;;;;5123283;27;20086;-66
2022/10/21 00:15:06;;;;;;;0.53;0.33;;;;;;;;;;5109243;28;20200;-67
2022/10/21 00:17:34;;;;;;;0.90;0.70;;;;;;;;;;5116460;27;20027;-65
2022/10/21 00:20:01;;;;;;;0.20;0.20;;;;;;;;;;5117876;27;20027;-66
2022/10/21 00:22:28;;;;;;;7.43;0.77;;;;;;;;;;5121281;27;20477;-64
2022/10/21 00:24:55;;;;;;;1.00;0.50;;;;;;;;;;5134151;27;20016;-66
2022/10/21 00:27:22;;;;;;;0.60;0.27;;;;;;;;;;5117396;27;20028;-64
2022/10/21 00:29:48;;;;;;;0.63;0.37;;;;;;;;;;5108755;28;20023;-69
2022/10/21 00:32:15;;;;;;;1.17;0.30;;;;;;;;;;5113807;27;20038;-70
2022/10/21 00:34:42;;;;;;;0.97;0.30;;;;;;;;;;5115260;27;20050;-67
2022/10/21 00:37:09;;;;;;;1.70;0.37;;;;;;;;;;5127079;27;20544;-65
2022/10/21 00:39:37;;;;;;;0.57;0.40;;;;;;;;;;5113501;28;20032;-65
2022/10/21 00:42:04;;;;;;;0.10;0.10;;;;;;;;;;5095578;28;20431;-65
2022/10/21 00:44:31;;;;;;;0.23;0.10;;;;;;;;;;5123823;27;20038;-66
2022/10/21 00:47:01;;;;;;;0.83;0.30;;;;;;;;;;5133918;27;20033;-66
2022/10/21 00:49:36;;;;;;;0.80;0.40;;;;;;;;;;5133651;27;20065;-67
2022/10/21 00:52:05;;;;;;;0.00;0.00;;;;;;;;;;5127961;27;20385;-66
2022/10/21 00:54:32;;;;;;;0.47;0.30;;;;;;;;;;5113386;27;20031;-67
2022/10/21 00:56:59;;;;;;;0.20;0.10;;;;;;;;;;5129114;27;20027;-66
2022/10/21 00:59:29;;;;;;;0.13;0.13;;;;;;;;;;5128139;27;20024;-68
2022/10/21 01:01:56;;;;;;;0.23;0.17;;;;;;;;;;5133032;27;20019;-66
2022/10/21 01:04:22;;;;;;;0.33;0.23;;;;;;;;;;5132793;27;20066;-66
2022/10/21 01:06:49;;;;;;;1.27;0.20;;;;;;;;;;5126482;27;20550;-66
2022/10/21 01:09:16;;;;;;;0.47;0.30;;;;;;;;;;5131445;27;20039;-66
2022/10/21 01:11:45;;;;;;;0.53;0.43;;;;;;;;;;5133553;27;20042;-66
2022/10/21 01:14:29;;;;;;;0.53;0.43;;;;;;;;;;5128588;27;20019;-66
2022/10/21 01:17:02;;;;;;;0.70;0.57;;;;;;;;;;5122786;27;20039;-66
2022/10/21 01:19:47;;;;;;;2.20;0.83;;;;;;;;;;5114913;27;20084;-66
2022/10/21 01:22:14;;;;;;;1.27;0.63;;;;;;;;;;5119744;27;20027;-66
2022/10/21 01:24:46;;;;;;;0.27;0.20;;;;;;;;;;5112958;28;20081;-66
2022/10/21 01:27:18;;;;;;;0.40;0.40;;;;;;;;;;5112955;28;20089;-66
2022/10/21 01:29:48;;;;;;;1.53;0.73;;;;;;;;;;5113124;28;20462;-66
2022/10/21 01:32:28;;;;;;;1.10;0.53;;;;;;;;;;5113100;28;20106;-66
2022/10/21 01:35:13;;;;;;;0.17;0.10;;;;;;;;;;5117429;28;20027;-66
2022/10/21 01:37:52;;;;;;;0.43;0.25;;;;;;;;;;5128368;27;20031;-66
2022/10/21 01:40:23;;;;;;;0.50;0.33;;;;;;;;;;5128377;28;20420;-66
2022/10/21 01:42:58;;;;;;;0.57;0.27;;;;;;;;;;5128376;28;20027;-66
2022/10/21 01:45:30;;;;;;;0.32;0.22;;;;;;;;;;5131190;28;20491;-66
2022/10/21 01:48:01;;;;;;;0.40;0.20;;;;;;;;;;5133589;28;20028;-66
2022/10/21 01:50:29;;;;;;;0.40;0.30;;;;;;;;;;5133166;28;20031;-66
2022/10/21 01:52:59;;;;;;;1.20;0.57;;;;;;;;;;5133414;28;20423;-66
2022/10/21 01:55:28;;;;;;;0.50;0.30;;;;;;;;;;5127810;28;20019;-66
2022/10/21 01:58:00;;;;;;;2.33;0.50;;;;;;;;;;5115245;28;20039;-66
2022/10/21 02:00:26;;;;;;;0.97;0.50;;;;;;;;;;5107483;28;20024;-66
2022/10/21 02:02:53;;;;;;;0.30;0.17;;;;;;;;;;5118303;28;20417;-66
2022/10/21 02:05:27;;;;;;;0.33;0.23;;;;;;;;;;5128042;28;20873;-66
2022/10/21 02:07:54;;;;;;;0.28;0.20;;;;;;;;;;5131268;28;20054;-66
2022/10/21 02:10:23;;;;;;;1.70;0.50;;;;;;;;;;5133043;27;20492;-66
2022/10/21 02:12:51;;;;;;;0.33;0.23;;;;;;;;;;5133344;28;20084;-66
2022/10/21 02:15:18;;;;;;;0.53;0.30;;;;;;;;;;5130880;28;20091;-66
2022/10/21 02:17:49;;;;;;;0.20;0.20;;;;;;;;;;5133179;28;20039;-66
2022/10/21 02:20:17;;;;;;;1.33;0.80;;;;;;;;;;5128983;28;20095;-66
2022/10/21 02:22:46;;;;;;;0.70;0.37;;;;;;;;;;5126614;28;20354;-66
2022/10/21 02:25:15;;;;;;;0.30;0.20;;;;;;;;;;5107992;28;20098;-66
2022/10/21 02:27:42;;;;;;;0.30;0.30;;;;;;;;;;5120512;28;20028;-66
2022/10/21 02:30:09;;;;;;;0.23;0.20;;;;;;;;;;5113959;28;20039;-66
2022/10/21 02:32:35;;;;;;;0.53;0.40;;;;;;;;;;5116342;28;20031;-65
2022/10/21 02:35:14;;;;;;;0.43;0.30;;;;;;;;;;5128519;27;20106;-66
2022/10/21 02:37:59;;;;;;;0.90;0.40;;;;;;;;;;5136626;27;20084;-66
2022/10/21 02:40:32;;;;;;;1.05;0.43;;;;;;;;;;5136796;27;20023;-66
2022/10/21 02:43:02;;;;;;;0.57;0.40;;;;;;;;;;5131498;27;20094;-66
2022/10/21 02:45:28;;;;;;;1.70;1.00;;;;;;;;;;5128123;27;20027;-66
2022/10/21 02:47:55;;;;;;;1.43;0.63;;;;;;;;;;5129688;27;20465;-65
2022/10/21 02:50:22;;;;;;;0.60;0.43;;;;;;;;;;5129513;27;20441;-66
2022/10/21 02:52:49;;;;;;;0.33;0.30;;;;;;;;;;5128642;27;20443;-66
2022/10/21 02:55:15;;;;;;;1.20;0.80;;;;;;;;;;5116746;27;20027;-66
2022/10/21 02:57:42;;;;;;;1.30;0.40;;;;;;;;;;5132126;27;20469;-66
2022/10/21 03:00:09;;;;;;;0.87;0.50;;;;;;;;;;5125599;27;20065;-66
2022/10/21 03:02:36;;;;;;;6.33;1.10;;;;;;;;;;5115789;28;20028;-66
2022/10/21 03:05:03;;;;;;;1.03;0.60;;;;;;;;;;5110992;28;20031;-65
2022/10/21 03:07:30;;;;;;;0.53;0.40;;;;;;;;;;5110717;28;20030;-65
2022/10/21 03:09:56;;;;;;;0.30;0.30;;;;;;;;;;5110954;27;20039;-65
2022/10/21 03:12:23;;;;;;;0.83;0.50;;;;;;;;;;5122904;27;20038;-64
2022/10/21 03:14:49;;;;;;;0.97;0.70;;;;;;;;;;5125960;27;20088;-65
2022/10/21 03:17:16;;;;;;;2.00;0.57;;;;;;;;;;5115255;28;20046;-64
2022/10/21 03:19:43;;;;;;;0.27;0.27;;;;;;;;;;5115643;28;20026;-66
2022/10/21 03:22:09;;;;;;;0.63;0.43;;;;;;;;;;5128939;27;20110;-66
2022/10/21 03:24:36;;;;;;;2.77;0.60;;;;;;;;;;5136037;27;20023;-67
2022/10/21 03:27:03;;;;;;;0.90;0.37;;;;;;;;;;5131108;27;20528;-67
2022/10/21 03:29:30;;;;;;;1.13;0.50;;;;;;;;;;5115175;27;20039;-67
2022/10/21 03:31:56;;;;;;;0.20;0.20;;;;;;;;;;5110152;28;20061;-65
2022/10/21 03:34:23;;;;;;;2.57;0.83;;;;;;;;;;5109791;28;20107;-66
2022/10/21 03:36:50;;;;;;;0.30;0.20;;;;;;;;;;5114586;27;20024;-66
2022/10/21 03:39:16;;;;;;;2.47;0.43;;;;;;;;;;5114666;28;20034;-66
2022/10/21 03:41:43;;;;;;;2.70;0.70;;;;;;;;;;5127150;27;20019;-66
2022/10/21 03:44:10;;;;;;;0.50;0.37;;;;;;;;;;5134960;27;20027;-64
2022/10/21 03:46:36;;;;;;;0.23;0.20;;;;;;;;;;5135228;27;20019;-65
2022/10/21 03:49:03;;;;;;;1.17;0.40;;;;;;;;;;5131510;27;20027;-67
2022/10/21 03:51:29;;;;;;;1.20;0.73;;;;;;;;;;5129920;27;20039;-66
2022/10/21 03:53:56;;;;;;;0.60;0.47;;;;;;;;;;5130200;27;20023;-65
2022/10/21 03:56:23;;;;;;;1.43;0.40;;;;;;;;;;5130283;27;20015;-65
2022/10/21 03:58:49;;;;;;;0.10;0.10;;;;;;;;;;5132752;27;20023;-66
2022/10/21 04:01:16;;;;;;;0.77;0.70;;;;;;;;;;5128746;27;20091;-65
2022/10/21 04:03:43;;;;;;;0.43;0.40;;;;;;;;;;5114696;28;20575;-64
2022/10/21 04:06:10;;;;;;;0.40;0.40;;;;;;;;;;5114634;28;20022;-64
2022/10/21 04:08:36;;;;;;;1.03;0.60;;;;;;;;;;5127298;27;20035;-64
2022/10/21 04:11:03;;;;;;;0.37;0.20;;;;;;;;;;5111413;27;20040;-65
2022/10/21 04:13:30;;;;;;;1.53;0.83;;;;;;;;;;5109310;28;20024;-64
2022/10/21 04:15:58;;;;;;;1.57;0.83;;;;;;;;;;5122189;27;20031;-65
2022/10/21 04:18:24;;;;;;;0.40;0.30;;;;;;;;;;5116225;27;20039;-64
2022/10/21 04:20:51;;;;;;;0.20;0.20;;;;;;;;;;5114488;27;20024;-66
2022/10/21 04:23:18;;;;;;;1.53;0.70;;;;;;;;;;5134669;27;20027;-64
2022/10/21 04:25:45;;;;;;;0.57;0.47;;;;;;;;;;5130469;27;20020;-66
2022/10/21 04:28:12;;;;;;;1.93;0.83;;;;;;;;;;5114088;28;20449;-64
2022/10/21 04:30:39;;;;;;;1.20;0.53;;;;;;;;;;5114129;28;20106;-64
2022/10/21 04:33:06;;;;;;;0.43;0.30;;;;;;;;;;5110675;28;20024;-65
2022/10/21 04:35:32;;;;;;;0.43;0.40;;;;;;;;;;5108648;28;20023;-67
2022/10/21 04:37:59;;;;;;;0.80;0.60;;;;;;;;;;5122756;27;20023;-66
2022/10/21 04:40:26;;;;;;;0.60;0.43;;;;;;;;;;5129324;27;20495;-65
2022/10/21 04:42:53;;;;;;;0.40;0.30;;;;;;;;;;5131414;27;20092;-65
2022/10/21 04:45:19;;;;;;;0.47;0.30;;;;;;;;;;5134361;27;20384;-64
2022/10/21 04:47:46;;;;;;;0.37;0.37;;;;;;;;;;5134177;27;20030;-64
2022/10/21 04:50:13;;;;;;;0.30;0.20;;;;;;;;;;5133729;27;20031;-64
2022/10/21 04:52:39;;;;;;;0.30;0.30;;;;;;;;;;5133360;27;20027;-64
2022/10/21 04:55:06;;;;;;;0.27;0.20;;;;;;;;;;5131968;27;20026;-65
2022/10/21 04:57:33;;;;;;;11.57;0.90;;;;;;;;;;5129001;27;20020;-64
2022/10/21 05:00:00;;;;;;;0.90;0.50;;;;;;;;;;5114581;27;20027;-64
2022/10/21 05:02:27;;;;;;;0.63;0.43;;;;;;;;;;5108249;28;20032;-63
2022/10/21 05:04:53;;;;;;;1.03;0.63;;;;;;;;;;5110143;28;20028;-63
2022/10/21 05:07:20;;;;;;;1.03;0.53;;;;;;;;;;5112983;28;20083;-64
2022/10/21 05:09:47;;;;;;;0.37;0.37;;;;;;;;;;5113179;28;20080;-65
2022/10/21 05:12:13;;;;;;;1.50;0.70;;;;;;;;;;5113351;28;20423;-64
2022/10/21 05:14:40;;;;;;;0.50;0.40;;;;;;;;;;5113189;28;20023;-65
2022/10/21 05:17:07;;;;;;;0.67;0.47;;;;;;;;;;5110977;28;20023;-67
2022/10/21 05:19:33;;;;;;;0.00;0.00;;;;;;;;;;5108165;28;20022;-66
2022/10/21 05:22:00;;;;;;;0.90;0.40;;;;;;;;;;5120000;27;20731;-65
2022/10/21 05:24:27;;;;;;;1.20;0.50;;;;;;;;;;5128355;27;20100;-64
2022/10/21 05:26:53;;;;;;;1.63;0.40;;;;;;;;;;5129858;27;20482;-64
2022/10/21 05:29:20;;;;;;;0.10;0.10;;;;;;;;;;5133728;27;20023;-64
2022/10/21 05:34:50;;;;;;;0.97;0.40;;;;;;;;;;5122126;27;20084;-65
2022/10/21 05:37:17;;;;;;;0.43;0.40;;;;;;;;;;5113151;28;20125;-63
2022/10/21 05:39:43;;;;;;;0.53;0.30;;;;;;;;;;5110143;28;20020;-63
2022/10/21 05:42:10;;;;;;;0.17;0.17;;;;;;;;;;5107625;28;20047;-64
2022/10/21 05:44:37;;;;;;;1.23;0.73;;;;;;;;;;5124857;28;20378;-64
2022/10/21 05:47:03;;;;;;;0.20;0.20;;;;;;;;;;5128389;28;20024;-66
2022/10/21 05:49:30;;;;;;;8.13;1.43;;;;;;;;;;5130132;28;20084;-66
2022/10/21 05:51:57;;;;;;;0.93;0.70;;;;;;;;;;5133172;28;20509;-66
2022/10/21 05:54:23;;;;;;;0.97;0.60;;;;;;;;;;5117666;28;20035;-65
2022/10/21 05:56:50;;;;;;;0.87;0.60;;;;;;;;;;5123271;28;20222;-66
2022/10/21 05:59:17;;;;;;;1.13;0.40;;;;;;;;;;5133238;28;20106;-65
2022/10/21 06:01:44;;;;;;;0.53;0.40;;;;;;;;;;5130998;28;20023;-65
2022/10/21 06:04:11;;;;;;;0.83;0.50;;;;;;;;;;5131842;27;20019;-64
2022/10/21 06:06:37;;;;;;;0.20;0.20;;;;;;;;;;5123172;27;20651;-64
2022/10/21 06:09:04;;;;;;;0.33;0.20;;;;;;;;;;5111722;28;20012;-64
2022/10/21 06:11:31;;;;;;;0.43;0.30;;;;;;;;;;5121229;27;20039;-65
2022/10/21 06:13:57;;;;;;;0.10;0.10;;;;;;;;;;5137467;27;20031;-64
2022/10/21 06:16:24;;;;;;;0.30;0.30;;;;;;;;;;5137080;27;20019;-64
2022/10/21 06:18:51;;;;;;;0.23;0.10;;;;;;;;;;5137425;27;20030;-63
2022/10/21 06:21:17;;;;;;;0.30;0.30;;;;;;;;;;5136175;27;20023;-66
2022/10/21 06:23:44;;;;;;;0.30;0.23;;;;;;;;;;5135244;27;20024;-66
2022/10/21 06:26:12;;;;;;;0.83;0.57;;;;;;;;;;5124944;27;20049;-65
2022/10/21 06:28:40;;;;;;;0.70;0.50;;;;;;;;;;5111336;28;20046;-65
2022/10/21 06:31:07;;;;;;;0.67;0.43;;;;;;;;;;5114996;27;20385;-63
2022/10/21 06:33:35;;;;;;;7.23;0.73;;;;;;;;;;5114584;27;20415;-65
2022/10/21 06:36:01;;;;;;;1.00;0.53;;;;;;;;;;5136913;27;20027;-63
2022/10/21 06:38:28;;;;;;;0.63;0.60;;;;;;;;;;5136278;27;20024;-65
2022/10/21 06:41:05;;;;;;;2.57;0.43;;;;;;;;;;5135273;27;20023;-64
2022/10/21 06:43:32;;;;;;;0.60;0.30;;;;;;;;;;5116194;28;20031;-65
2022/10/21 06:46:09;;;;;;;0.83;0.50;;;;;;;;;;5114248;28;20020;-62
2022/10/21 06:48:35;;;;;;;0.47;0.40;;;;;;;;;;5118050;27;20030;-63
2022/10/21 06:51:07;;;;;;;0.20;0.20;;;;;;;;;;5131201;27;20039;-65
2022/10/21 06:53:34;;;;;;;5.43;0.77;;;;;;;;;;5131643;27;20053;-64
2022/10/21 06:56:03;;;;;;;1.17;0.70;;;;;;;;;;5133243;27;20030;-63
2022/10/21 06:58:30;;;;;;;1.33;0.87;;;;;;;;;;5129725;27;20027;-64
2022/10/21 07:00:57;;;;;;;0.60;0.40;;;;;;;;;;5115977;28;20028;-63
2022/10/21 07:03:23;;;;;;;0.60;0.43;;;;;;;;;;5115727;28;20073;-64
2022/10/21 07:05:57;;;;;;;2.20;0.53;;;;;;;;;;5115586;28;20024;-63
2022/10/21 07:08:23;;;;;;;1.17;0.77;;;;;;;;;;5118143;27;20482;-63
2022/10/21 07:10:50;;;;;;;0.93;0.70;;;;;;;;;;5130784;27;20038;-65
2022/10/21 07:13:17;;;;;;;1.03;0.60;;;;;;;;;;5131108;27;20096;-64
2022/10/21 07:15:43;;;;;;;1.00;0.60;;;;;;;;;;5130162;27;20368;-65
2022/10/21 07:18:13;;;;;;;3.63;0.60;;;;;;;;;;5129434;27;20524;-65
2022/10/21 07:20:40;;;;;;;5.73;0.77;;;;;;;;;;5115393;28;20378;-65
2022/10/21 07:23:06;;;;;;;0.33;0.33;;;;;;;;;;5135826;27;20045;-63
2022/10/21 07:25:33;;;;;;;0.10;0.10;;;;;;;;;;5135961;27;20072;-63
2022/10/21 07:28:00;;;;;;;0.43;0.43;;;;;;;;;;5134204;27;20152;-65
2022/10/21 07:30:26;;;;;;;0.70;0.50;;;;;;;;;;5113238;28;20418;-64
2022/10/21 07:32:53;;;;;;;0.30;0.20;;;;;;;;;;5110076;28;20480;-63
2022/10/21 07:35:20;;;;;;;0.50;0.40;;;;;;;;;;5109809;28;20024;-64
2022/10/21 07:37:46;;;;;;;1.70;0.73;;;;;;;;;;5110247;28;20023;-63
2022/10/21 07:40:13;;;;;;;0.67;0.50;;;;;;;;;;5130747;27;20452;-64
2022/10/21 07:42:40;;;;;;;0.40;0.40;;;;;;;;;;5135792;27;20019;-64
2022/10/21 07:45:07;;;;;;;1.90;0.70;;;;;;;;;;5135490;27;20023;-64
2022/10/21 07:47:33;;;;;;;0.30;0.30;;;;;;;;;;5135387;27;20478;-64
2022/10/21 07:50:00;;;;;;;0.50;0.37;;;;;;;;;;5120521;27;20077;-63
2022/10/21 07:52:27;;;;;;;0.17;0.17;;;;;;;;;;5112660;27;20023;-63
2022/10/21 07:54:53;;;;;;;4.30;0.57;;;;;;;;;;5109789;28;20081;-64
2022/10/21 07:57:20;;;;;;;0.27;0.20;;;;;;;;;;5124516;27;20085;-63
2022/10/21 07:59:47;;;;;;;0.10;0.10;;;;;;;;;;5129830;27;20034;-65
2022/10/21 08:02:13;;;;;;;0.40;0.23;;;;;;;;;;5130537;27;20027;-65
2022/10/21 08:04:40;;;;;;;1.27;0.50;;;;;;;;;;5135149;27;20023;-64
2022/10/21 08:07:07;;;;;;;0.80;0.53;;;;;;;;;;5122236;27;20419;-66
2022/10/21 08:09:34;;;;;;;0.60;0.47;;;;;;;;;;5114403;28;20475;-65
2022/10/21 08:12:00;;;;;;;0.60;0.50;;;;;;;;;;5114468;28;20074;-65
2022/10/21 08:14:27;;;;;;;1.80;0.77;;;;;;;;;;5113317;28;20022;-64
2022/10/21 08:16:54;;;;;;;1.43;0.80;;;;;;;;;;5110145;27;20023;-63
2022/10/21 08:19:26;;;;;;;0.73;0.53;;;;;;;;;;5109271;28;20026;-63
2022/10/21 08:21:53;;;;;;;0.60;0.43;;;;;;;;;;5119179;27;20027;-63
2022/10/21 08:24:20;;;;;;;1.87;1.13;;;;;;;;;;5129926;27;20430;-63
2022/10/21 08:26:46;;;;;;;1.10;0.63;;;;;;;;;;5132905;27;20027;-64
2022/10/21 08:29:13;;;;;;;0.70;0.60;;;;;;;;;;5134719;27;20015;-65
2022/10/21 08:31:40;;;;;;;12.70;1.13;;;;;;;;;;5134783;27;20063;-64
2022/10/21 08:34:07;;;;;;;1.27;0.70;;;;;;;;;;5134641;27;20083;-65
2022/10/21 08:36:33;;;;;;;2.23;0.40;;;;;;;;;;5126102;27;20024;-65
2022/10/21 08:39:00;;;;;;;1.27;0.83;;;;;;;;;;5110855;27;20381;-63
2022/10/21 08:41:30;;;;;;;1.23;0.50;;;;;;;;;;5108512;28;20039;-63
2022/10/21 08:43:59;;;;;;;1.03;0.60;;;;;;;;;;5108514;28;20028;-62
2022/10/21 08:46:48;;;;;;;1.90;0.73;;;;;;;;;;5108671;28;20062;-63
2022/10/21 08:49:15;;;;;;;0.33;0.30;;;;;;;;;;5120928;27;20039;-63
2022/10/21 08:51:45;;;;;;;3.23;0.80;;;;;;;;;;5134319;27;20027;-63
2022/10/21 08:54:16;;;;;;;1.60;0.93;;;;;;;;;;5134083;27;20023;-63
2022/10/21 08:56:42;;;;;;;0.20;0.20;;;;;;;;;;5131053;27;20102;-63
2022/10/21 08:59:35;;;;;;;0.20;0.20;;;;;;;;;;5111582;28;20051;-63
2022/10/21 09:02:22;;;;;;;2.30;0.57;;;;;;;;;;5104831;28;20091;-63
2022/10/21 09:05:06;;;;;;;1.33;0.53;;;;;;;;;;5066631;28;20066;-63
2022/10/21 09:07:42;;;;;;;0.43;0.32;;;;;;;;;;5117262;27;20381;-62
2022/10/21 09:10:18;;;;;;;0.60;0.50;;;;;;;;;;5131869;27;20039;-63
2022/10/21 09:12:57;;;;;;;0.30;0.30;;;;;;;;;;5133832;27;20019;-62
2022/10/21 09:15:25;;;;;;;0.90;0.63;;;;;;;;;;5133117;27;20377;-63
2022/10/21 09:18:01;;;;;;;0.67;0.57;;;;;;;;;;5121590;27;20023;-63
2022/10/21 09:20:31;;;;;;;0.60;0.40;;;;;;;;;;5113127;28;20485;-62
2022/10/21 09:23:04;;;;;;;0.33;0.23;;;;;;;;;;5107762;28;20554;-63
2022/10/21 09:25:33;;;;;;;2.53;0.83;;;;;;;;;;5107894;28;20027;-63
2022/10/21 09:28:01;;;;;;;1.80;0.30;;;;;;;;;;5119884;27;20079;-63
2022/10/21 09:30:28;;;;;;;1.03;0.70;;;;;;;;;;5128107;27;20118;-62
2022/10/21 09:32:59;;;;;;;0.60;0.53;;;;;;;;;;5132890;27;20023;-63
2022/10/21 09:35:32;;;;;;;0.63;0.53;;;;;;;;;;5133388;27;20027;-62
2022/10/21 09:38:01;;;;;;;1.23;0.90;;;;;;;;;;5120365;27;20027;-63
2022/10/21 09:40:29;;;;;;;1.00;0.83;;;;;;;;;;5112564;28;20028;-63
2022/10/21 09:43:00;;;;;;;1.60;0.73;;;;;;;;;;5112744;28;20084;-62
2022/10/21 09:45:40;;;;;;;0.50;0.50;;;;;;;;;;5107335;28;20095;-63
2022/10/21 09:48:20;;;;;;;1.80;0.67;;;;;;;;;;5120370;28;20470;-63
2022/10/21 09:50:49;;;;;;;1.20;0.83;;;;;;;;;;5127876;28;20031;-63
2022/10/21 09:53:20;;;;;;;0.30;0.30;;;;;;;;;;5128706;28;20370;-63
2022/10/21 09:55:48;;;;;;;0.87;0.63;;;;;;;;;;5133333;28;20489;-63
2022/10/21 09:58:35;;;;;;;2.53;1.20;;;;;;;;;;5118900;28;20032;-63
2022/10/21 10:01:02;;;;;;;1.73;0.80;;;;;;;;;;5098948;28;20124;-63
2022/10/21 10:03:30;;;;;;;0.63;0.47;;;;;;;;;;5112579;28;20482;-63
2022/10/21 10:05:57;;;;;;;0.70;0.50;;;;;;;;;;5110501;28;20102;-63
2022/10/21 10:08:38;;;;;;;0.50;0.40;;;;;;;;;;5121965;28;20042;-63
2022/10/21 10:11:08;;;;;;;0.30;0.30;;;;;;;;;;5127363;28;20034;-63
2022/10/21 10:13:42;;;;;;;2.90;0.87;;;;;;;;;;5127765;28;20019;-63
2022/10/21 10:16:34;;;;;;;0.33;0.27;;;;;;;;;;5130114;28;20025;-62
2022/10/21 10:19:10;;;;;;;0.57;0.50;;;;;;;;;;5107957;28;20169;-63
2022/10/21 10:21:36;;;;;;;0.57;0.50;;;;;;;;;;5112411;28;20032;-63
2022/10/21 10:24:04;;;;;;;1.33;0.30;;;;;;;;;;5112515;28;20054;-62
2022/10/21 10:26:37;;;;;;;0.83;0.63;;;;;;;;;;5112329;28;20027;-62
2022/10/21 10:29:15;;;;;;;0.63;0.40;;;;;;;;;;5128140;28;20035;-63
2022/10/21 10:31:47;;;;;;;1.10;0.67;;;;;;;;;;5127545;28;20036;-63
2022/10/21 10:34:21;;;;;;;0.47;0.40;;;;;;;;;;5127655;28;20031;-63
2022/10/21 10:36:49;;;;;;;1.45;0.80;;;;;;;;;;5120332;28;20036;-62
2022/10/21 10:39:19;;;;;;;0.20;0.20;;;;;;;;;;5111173;28;20507;-63
2022/10/21 10:41:48;;;;;;;1.40;0.97;;;;;;;;;;5112027;28;20027;-63
2022/10/21 10:44:40;;;;;;;1.00;0.73;;;;;;;;;;5112306;28;20031;-63
2022/10/21 10:47:08;;;;;;;0.97;0.77;;;;;;;;;;5117668;28;20073;-63
2022/10/21 10:49:42;;;;;;;0.90;0.60;;;;;;;;;;5133529;27;20020;-62
2022/10/21 10:52:12;;;;;;;0.93;0.73;;;;;;;;;;5130707;27;20035;-63
2022/10/21 10:54:39;;;;;;;2.00;0.90;;;;;;;;;;5131129;27;20030;-63
2022/10/21 10:57:06;;;;;;;1.30;0.90;;;;;;;;;;5121870;27;20031;-63
2022/10/21 10:59:56;;;;;;;0.83;0.70;;;;;;;;;;5118519;27;20039;-63
2022/10/21 11:02:31;;;;;;;0.53;0.30;;;;;;;;;;5122705;27;20168;-62
2022/10/21 11:05:13;;;;;;;2.50;1.17;;;;;;;;;;5136407;27;20027;-63
2022/10/21 11:07:50;;;;;;;7.67;1.27;;;;;;;;;;5136239;27;20026;-62
2022/10/21 11:10:23;;;;;;;2.30;0.73;;;;;;;;;;5121624;27;20028;-63
2022/10/21 11:12:50;;;;;;;0.57;0.57;;;;;;;;;;5113160;28;20024;-63
2022/10/21 11:15:16;;;;;;;1.13;0.30;;;;;;;;;;5110082;28;20110;-63
2022/10/21 11:18:02;;;;;;;0.40;0.40;;;;;;;;;;5109974;28;20031;-62
2022/10/21 11:21:01;;;;;;;1.10;0.80;;;;;;;;;;5124574;27;20027;-63
2022/10/21 11:23:40;;;;;;;0.43;0.30;;;;;;;;;;5077855;27;20566;-62
2022/10/21 11:26:13;;;;;;;1.67;0.90;;;;;;;;;;5135673;27;20114;-63
2022/10/21 11:28:47;;;;;;;0.73;0.47;;;;;;;;;;5135873;27;20027;-63
2022/10/21 11:31:49;;;;;;;1.10;0.57;;;;;;;;;;5115038;28;20040;-62
2022/10/21 11:34:21;;;;;;;0.43;0.30;;;;;;;;;;5011802;28;20022;-63
2022/10/21 11:36:48;;;;;;;0.60;0.50;;;;;;;;;;5093676;28;20130;-63
2022/10/21 11:39:18;;;;;;;1.10;0.63;;;;;;;;;;5113618;27;20135;-63
2022/10/21 11:41:47;;;;;;;2.17;0.97;;;;;;;;;;5130312;27;20027;-63
2022/10/21 11:44:20;;;;;;;1.93;1.00;;;;;;;;;;5130498;27;20397;-63
2022/10/21 11:46:54;;;;;;;0.60;0.43;;;;;;;;;;5128073;27;20031;-62
2022/10/21 11:49:27;;;;;;;0.57;0.52;;;;;;;;;;5134194;27;20019;-62
2022/10/21 11:52:01;;;;;;;4.30;0.83;;;;;;;;;;5135258;27;20558;-63
2022/10/21 11:54:36;;;;;;;0.50;0.40;;;;;;;;;;5135271;27;20023;-62
2022/10/21 11:57:25;;;;;;;0.43;0.40;;;;;;;;;;5124521;27;20072;-63
2022/10/21 11:59:52;;;;;;;0.73;0.60;;;;;;;;;;5109260;28;20027;-63
2022/10/21 12:02:25;;;;;;;2.10;0.80;;;;;;;;;;5109084;28;20068;-63
2022/10/21 12:05:01;;;;;;;0.87;0.60;;;;;;;;;;5108875;28;20019;-63
2022/10/21 12:07:34;;;;;;;1.73;0.87;;;;;;;;;;5123286;27;20114;-62
2022/10/21 12:10:19;;;;;;;1.07;0.73;;;;;;;;;;5134728;27;20038;-63
2022/10/21 12:12:47;;;;;;;28.85;0.82;;;;;;;;;;5134998;27;20015;-62
2022/10/21 12:15:17;;;;;;;5.67;0.90;;;;;;;;;;5134900;27;20019;-63
2022/10/21 12:17:45;;;;;;;0.30;0.23;;;;;;;;;;5120601;27;20030;-63
2022/10/21 12:20:20;;;;;;;0.40;0.40;;;;;;;;;;5110336;28;20436;-63
2022/10/21 12:22:47;;;;;;;0.73;0.67;;;;;;;;;;5108587;28;20035;-62
2022/10/21 12:25:17;;;;;;;0.60;0.50;;;;;;;;;;5109043;28;20024;-62
2022/10/21 12:27:46;;;;;;;1.00;0.87;;;;;;;;;;5121288;27;20038;-63
2022/10/21 12:30:13;;;;;;;1.47;1.23;;;;;;;;;;5132391;27;20015;-62
2022/10/21 12:32:49;;;;;;;0.50;0.50;;;;;;;;;;5134661;27;20098;-63
2022/10/21 12:35:20;;;;;;;0.93;0.70;;;;;;;;;;5134453;27;20019;-62
2022/10/21 12:37:50;;;;;;;3.53;0.83;;;;;;;;;;5120762;27;20076;-63
2022/10/21 12:40:26;;;;;;;0.87;0.60;;;;;;;;;;5113715;28;20433;-62
2022/10/21 12:43:03;;;;;;;0.60;0.57;;;;;;;;;;5108724;28;20019;-63
2022/10/21 12:45:34;;;;;;;0.73;0.60;;;;;;;;;;5108398;28;20100;-62
2022/10/21 12:48:05;;;;;;;0.80;0.63;;;;;;;;;;5122710;27;20052;-63
2022/10/21 12:50:33;;;;;;;7.97;1.07;;;;;;;;;;5128822;27;20088;-63
2022/10/21 12:53:17;;;;;;;0.50;0.50;;;;;;;;;;5133787;27;20015;-63
2022/10/21 12:55:48;;;;;;;0.60;0.60;;;;;;;;;;5134054;27;20437;-63
2022/10/21 12:58:22;;;;;;;2.10;1.30;;;;;;;;;;5117069;27;20382;-63
2022/10/21 13:00:48;;;;;;;1.33;0.90;;;;;;;;;;5113493;28;20501;-62
2022/10/21 13:03:22;;;;;;;1.23;0.90;;;;;;;;;;5112615;28;20030;-63
2022/10/21 13:05:51;;;;;;;1.80;0.77;;;;;;;;;;5108099;28;20023;-63
2022/10/21 13:08:27;;;;;;;0.63;0.47;;;;;;;;;;5124484;27;20029;-62
2022/10/21 13:11:03;;;;;;;2.67;1.10;;;;;;;;;;5108050;27;20035;-62
2022/10/21 13:13:32;;;;;;;1.40;1.17;;;;;;;;;;5108451;28;20063;-62
2022/10/21 13:16:00;;;;;;;1.57;1.00;;;;;;;;;;5113226;28;20107;-62
2022/10/21 13:18:52;;;;;;;0.87;0.83;;;;;;;;;;5130455;27;20056;-62
2022/10/21 13:21:37;;;;;;;2.10;1.07;;;;;;;;;;5129254;27;20039;-63
2022/10/21 13:24:22;;;;;;;1.35;0.95;;;;;;;;;;5133493;27;20031;-62
2022/10/21 13:26:56;;;;;;;2.78;1.33;;;;;;;;;;5125604;27;20031;-62
2022/10/21 13:29:31;;;;;;;2.93;1.30;;;;;;;;;;5107667;28;20031;-63
2022/10/21 13:32:13;;;;;;;2.73;1.37;;;;;;;;;;5107528;28;20061;-63
2022/10/21 13:34:41;;;;;;;2.03;1.00;;;;;;;;;;5107353;28;20024;-63
2022/10/21 13:37:37;;;;;;;1.53;1.10;;;;;;;;;;5117617;27;20011;-63
2022/10/21 13:40:06;;;;;;;0.77;0.63;;;;;;;;;;5043110;28;20045;-63
2022/10/21 13:42:39;;;;;;;1.40;1.00;;;;;;;;;;5132282;27;20068;-63
2022/10/21 13:45:18;;;;;;;1.50;1.00;;;;;;;;;;5094850;28;20060;-63
2022/10/21 13:47:45;;;;;;;1.70;0.80;;;;;;;;;;5111517;28;20023;-63
2022/10/21 13:50:29;;;;;;;1.30;1.10;;;;;;;;;;5107727;28;20404;-63
2022/10/21 13:52:56;;;;;;;1.53;1.23;;;;;;;;;;5110028;28;20020;-63
2022/10/21 13:55:24;;;;;;;1.13;0.90;;;;;;;;;;5127668;28;20061;-63
2022/10/21 13:57:52;;;;;;;1.87;1.27;;;;;;;;;;5129039;28;20031;-63
2022/10/21 14:00:20;;;;;;;1.60;0.97;;;;;;;;;;5133380;28;20372;-63
2022/10/21 14:02:51;;;;;;;1.57;1.17;;;;;;;;;;5131356;28;20044;-63
2022/10/21 14:05:28;;;;;;;5.57;1.77;;;;;;;;;;5112416;28;20024;-63
2022/10/21 14:07:55;;;;;;;3.70;1.83;;;;;;;;;;5112629;28;20051;-63
2022/10/21 14:10:22;;;;;;;2.20;1.30;;;;;;;;;;5115225;28;20038;-63
2022/10/21 14:12:49;;;;;;;1.30;0.87;;;;;;;;;;5109239;28;20428;-63
2022/10/21 14:15:18;;;;;;;3.00;1.37;;;;;;;;;;5107379;28;20028;-63
2022/10/21 14:17:48;;;;;;;4.33;1.50;;;;;;;;;;5107358;28;20080;-63
2022/10/21 14:20:17;;;;;;;1.87;1.37;;;;;;;;;;5108609;28;20024;-63
2022/10/21 14:22:48;;;;;;;2.77;1.57;;;;;;;;;;5128437;28;20641;-63
2022/10/21 14:25:15;;;;;;;3.50;1.63;;;;;;;;;;5136615;27;20542;-63
2022/10/21 14:27:45;;;;;;;1.17;1.03;;;;;;;;;;5137096;27;20084;-63
2022/10/21 14:30:17;;;;;;;2.53;1.63;;;;;;;;;;5136738;27;20443;-63
2022/10/21 14:32:45;;;;;;;6.17;1.40;;;;;;;;;;5117743;27;20072;-63
2022/10/21 14:35:11;;;;;;;2.13;1.40;;;;;;;;;;5111008;28;20542;-63
2022/10/21 14:37:45;;;;;;;1.80;0.87;;;;;;;;;;5111116;28;20047;-63
2022/10/21 14:40:44;;;;;;;1.63;1.03;;;;;;;;;;5110968;28;20076;-62
2022/10/21 14:43:19;;;;;;;1.70;1.07;;;;;;;;;;5076589;28;20047;-63
2022/10/21 14:45:52;;;;;;;2.90;1.67;;;;;;;;;;5116160;28;20090;-63
2022/10/21 14:48:26;;;;;;;2.27;1.23;;;;;;;;;;5116127;28;20031;-63
2022/10/21 14:51:00;;;;;;;1.30;1.03;;;;;;;;;;5115325;28;20059;-64
2022/10/21 14:53:32;;;;;;;1.30;1.05;;;;;;;;;;5115973;28;20042;-63
2022/10/21 14:55:59;;;;;;;0.47;0.43;;;;;;;;;;5111260;28;20023;-63
2022/10/21 14:58:31;;;;;;;1.67;1.07;;;;;;;;;;5110649;28;20107;-63
2022/10/21 15:00:59;;;;;;;1.17;0.87;;;;;;;;;;5116824;27;20020;-62
2022/10/21 15:03:42;;;;;;;2.37;1.20;;;;;;;;;;5130626;27;20023;-63